createdAt,value
2023-02-12T00:02:15.874Z,3.50
2023-02-12T00:04:42.548Z,3.40
2023-02-12T00:07:09.242Z,3.10
2023-02-12T00:09:35.895Z,3.20
2023-02-12T00:12:02.637Z,3.30
2023-02-12T00:14:29.298Z,3.10
2023-02-12T00:16:55.938Z,3.40
2023-02-12T00:19:22.671Z,3.50
2023-02-12T00:21:49.326Z,3.60
2023-02-12T00:24:15.971Z,2.80
2023-02-12T00:26:42.672Z,3.00
2023-02-12T00:29:09.296Z,2.70
2023-02-12T00:31:36.016Z,3.00
2023-02-12T00:34:02.765Z,3.10
2023-02-12T00:36:29.386Z,3.00
2023-02-12T00:38:56.096Z,3.00
2023-02-12T00:41:22.805Z,2.90
2023-02-12T00:43:49.451Z,2.30
2023-02-12T00:46:16.180Z,2.00
2023-02-12T00:48:42.848Z,2.50
2023-02-12T00:51:09.529Z,2.60
2023-02-12T00:53:36.196Z,2.30
2023-02-12T00:56:02.864Z,2.50
2023-02-12T00:58:29.548Z,2.80
2023-02-12T01:00:56.253Z,3.00
2023-02-12T01:03:22.888Z,3.20
2023-02-12T01:05:49.558Z,3.30
2023-02-12T01:08:16.213Z,3.40
2023-02-12T01:10:42.835Z,3.00
2023-02-12T01:13:09.505Z,2.70
2023-02-12T01:15:36.164Z,2.40
2023-02-12T01:18:02.914Z,2.60
2023-02-12T01:20:29.569Z,2.70
2023-02-12T01:22:56.214Z,2.70
2023-02-12T01:25:22.831Z,3.10
2023-02-12T01:27:49.472Z,3.40
2023-02-12T01:30:16.144Z,3.70
2023-02-12T01:32:43.131Z,3.80
2023-02-12T01:35:09.783Z,3.70
2023-02-12T01:37:36.392Z,3.80
2023-02-12T01:40:03.029Z,3.50
2023-02-12T01:42:29.702Z,2.90
2023-02-12T01:44:56.426Z,3.30
2023-02-12T01:47:23.078Z,3.50
2023-02-12T01:49:49.776Z,3.60
2023-02-12T01:52:16.421Z,3.50
2023-02-12T01:54:43.113Z,3.60
2023-02-12T01:57:09.865Z,3.80
2023-02-12T01:59:36.527Z,3.80
2023-02-12T02:02:03.206Z,3.90
2023-02-12T02:04:29.906Z,3.80
2023-02-12T02:06:56.520Z,3.60
2023-02-12T02:09:23.154Z,3.30
2023-02-12T02:11:49.779Z,3.40
2023-02-12T02:14:16.436Z,3.40
2023-02-12T02:16:43.079Z,3.30
2023-02-12T02:19:09.769Z,3.00
2023-02-12T02:21:36.449Z,2.70
2023-02-12T02:24:03.059Z,3.10
2023-02-12T02:26:29.730Z,3.50
2023-02-12T02:28:56.405Z,3.40
2023-02-12T02:31:23.188Z,3.40
2023-02-12T02:33:49.995Z,3.50
2023-02-12T02:36:16.612Z,3.10
2023-02-12T02:38:43.259Z,3.00
2023-02-12T02:41:09.905Z,2.80
2023-02-12T02:43:36.539Z,2.30
2023-02-12T02:46:03.213Z,2.30
2023-02-12T02:48:29.807Z,2.70
2023-02-12T02:50:56.538Z,2.70
2023-02-12T02:53:23.144Z,3.00
2023-02-12T02:55:49.802Z,3.20
2023-02-12T02:58:16.423Z,3.30
2023-02-12T03:00:43.143Z,3.30
2023-02-12T03:03:09.838Z,2.70
2023-02-12T03:05:36.583Z,2.90
2023-02-12T03:08:05.328Z,2.80
2023-02-12T03:10:32.072Z,2.90
2023-02-12T03:12:58.751Z,2.90
2023-02-12T03:15:25.374Z,2.90
2023-02-12T03:17:52.047Z,2.60
2023-02-12T03:20:18.744Z,2.70
2023-02-12T03:22:45.462Z,2.80
2023-02-12T03:25:12.152Z,3.00
2023-02-12T03:27:38.833Z,3.10
2023-02-12T03:30:05.552Z,3.00
2023-02-12T03:32:32.216Z,3.00
2023-02-12T03:34:58.861Z,2.70
2023-02-12T03:37:25.481Z,2.80
2023-02-12T03:39:52.192Z,2.30
2023-02-12T03:42:18.841Z,1.70
2023-02-12T03:44:45.506Z,1.70
2023-02-12T03:47:12.171Z,2.20
2023-02-12T03:49:38.837Z,2.40
2023-02-12T03:52:05.499Z,2.10
2023-02-12T03:54:32.146Z,2.10
2023-02-12T03:56:58.781Z,2.40
2023-02-12T03:59:25.424Z,2.50
2023-02-12T04:01:52.179Z,2.60
2023-02-12T04:04:19.015Z,2.60
2023-02-12T04:06:45.667Z,2.50
2023-02-12T04:09:12.325Z,2.40
2023-02-12T04:11:38.950Z,2.30
2023-02-12T04:14:05.607Z,2.00
2023-02-12T04:16:33.120Z,1.80
2023-02-12T04:19:00.400Z,1.90
2023-02-12T04:21:27.078Z,1.90
2023-02-12T04:23:53.700Z,2.00
2023-02-12T04:26:20.349Z,2.00
2023-02-12T04:28:47.016Z,2.00
2023-02-12T04:31:13.765Z,2.10
2023-02-12T04:33:40.512Z,2.10
2023-02-12T04:36:07.320Z,1.90
2023-02-12T04:38:34.221Z,1.70
2023-02-12T04:41:00.897Z,1.70
2023-02-12T04:43:27.623Z,1.40
2023-02-12T04:45:54.683Z,1.50
2023-02-12T04:48:21.568Z,1.70
2023-02-12T04:50:48.251Z,1.90
2023-02-12T04:53:14.940Z,1.40
2023-02-12T04:55:41.582Z,1.20
2023-02-12T04:58:08.181Z,1.20
2023-02-12T05:00:34.805Z,1.70
2023-02-12T05:03:01.384Z,2.10
2023-02-12T05:05:28.059Z,2.10
2023-02-12T05:07:54.683Z,2.10
2023-02-12T05:10:21.387Z,2.30
2023-02-12T05:12:48.060Z,2.40
2023-02-12T05:15:14.738Z,2.50
2023-02-12T05:17:41.438Z,2.50
2023-02-12T05:20:08.079Z,2.50
2023-02-12T05:22:34.741Z,2.40
2023-02-12T05:25:01.377Z,2.10
2023-02-12T05:27:28.029Z,2.20
2023-02-12T05:29:54.732Z,2.00
2023-02-12T05:32:21.358Z,1.90
2023-02-12T05:34:47.999Z,2.00
2023-02-12T05:37:14.641Z,2.00
2023-02-12T05:39:41.341Z,2.30
2023-02-12T05:42:08.003Z,2.50
2023-02-12T05:44:34.706Z,2.70
2023-02-12T05:47:01.361Z,2.60
2023-02-12T05:49:28.028Z,2.60
2023-02-12T05:51:54.709Z,2.70
2023-02-12T05:54:21.354Z,2.70
2023-02-12T05:56:48.028Z,2.70
2023-02-12T05:59:14.720Z,2.60
2023-02-12T06:01:41.381Z,2.70
2023-02-12T06:04:08.155Z,2.60
2023-02-12T06:06:34.892Z,1.90
2023-02-12T06:09:01.577Z,2.00
2023-02-12T06:11:28.253Z,2.30
2023-02-12T06:13:54.868Z,2.40
2023-02-12T06:16:21.611Z,2.50
2023-02-12T06:18:48.294Z,2.70
2023-02-12T06:21:14.917Z,2.40
2023-02-12T06:23:41.534Z,1.90
2023-02-12T06:26:08.127Z,2.20
2023-02-12T06:28:34.889Z,2.70
2023-02-12T06:31:01.623Z,2.80
2023-02-12T06:33:28.342Z,2.90
2023-02-12T06:35:55.189Z,3.00
2023-02-12T06:38:21.987Z,3.20
2023-02-12T06:40:48.671Z,3.30
2023-02-12T06:43:15.280Z,3.30
2023-02-12T06:45:41.968Z,3.50
2023-02-12T06:48:08.638Z,3.60
2023-02-12T06:50:35.282Z,3.50
2023-02-12T06:53:01.938Z,3.40
2023-02-12T06:55:28.590Z,2.90
2023-02-12T06:57:55.286Z,2.70
2023-02-12T07:00:22.203Z,3.10
2023-02-12T07:02:48.912Z,3.50
2023-02-12T07:05:15.624Z,3.40
2023-02-12T07:07:42.317Z,3.70
2023-02-12T07:10:09.008Z,3.90
2023-02-12T07:12:35.630Z,4.00
2023-02-12T07:15:02.310Z,3.90
2023-02-12T07:17:29.001Z,4.00
2023-02-12T07:19:56.232Z,4.10
2023-02-12T07:22:22.846Z,3.80
2023-02-12T07:24:49.463Z,4.00
2023-02-12T07:27:16.099Z,4.20
2023-02-12T07:29:42.732Z,4.40
2023-02-12T07:32:09.482Z,4.30
2023-02-12T07:34:36.200Z,4.30
2023-02-12T07:37:02.865Z,4.30
2023-02-12T07:39:29.563Z,4.30
2023-02-12T07:41:56.266Z,4.40
2023-02-12T07:44:22.975Z,4.60
2023-02-12T07:46:49.641Z,4.60
2023-02-12T07:49:16.348Z,4.90
2023-02-12T07:51:43.060Z,5.30
2023-02-12T07:54:09.794Z,5.30
2023-02-12T07:56:36.463Z,5.50
2023-02-12T07:59:03.089Z,5.80
2023-02-12T08:01:29.769Z,6.20
2023-02-12T08:03:56.535Z,6.40
2023-02-12T08:06:23.247Z,6.30
2023-02-12T08:08:49.942Z,6.30
2023-02-12T08:11:16.666Z,6.40
2023-02-12T08:13:43.329Z,6.10
2023-02-12T08:16:10.069Z,6.10
2023-02-12T08:18:36.739Z,6.20
2023-02-12T08:21:03.400Z,6.30
2023-02-12T08:23:30.116Z,6.40
2023-02-12T08:25:57.220Z,6.70
2023-02-12T08:28:24.028Z,6.70
2023-02-12T08:30:50.699Z,6.60
2023-02-12T08:33:17.385Z,6.80
2023-02-12T08:35:44.001Z,7.00
2023-02-12T08:38:10.723Z,7.20
2023-02-12T08:40:37.428Z,7.00
2023-02-12T08:43:04.132Z,7.10
2023-02-12T08:45:30.825Z,7.00
2023-02-12T08:47:57.539Z,7.00
2023-02-12T08:50:24.292Z,7.30
2023-02-12T08:52:50.934Z,7.50
2023-02-12T08:55:17.525Z,8.00
2023-02-12T08:57:44.144Z,8.10
2023-02-12T09:00:10.748Z,7.90
2023-02-12T09:02:37.609Z,8.20
2023-02-12T09:05:04.338Z,8.50
2023-02-12T09:07:31.041Z,8.70
2023-02-12T09:09:57.708Z,9.20
2023-02-12T09:12:24.346Z,8.90
2023-02-12T09:14:51.035Z,8.80
2023-02-12T09:17:17.657Z,9.10
2023-02-12T09:19:44.337Z,9.60
2023-02-12T09:22:10.962Z,9.50
2023-02-12T09:24:37.638Z,9.70
2023-02-12T09:27:04.280Z,9.90
2023-02-12T09:29:31.126Z,10.20
2023-02-12T09:31:57.889Z,10.40
2023-02-12T09:34:24.542Z,10.20
2023-02-12T09:36:51.236Z,10.00
2023-02-12T09:39:17.918Z,9.90
2023-02-12T09:41:45.095Z,9.80
2023-02-12T09:44:11.727Z,9.90
2023-02-12T09:46:38.449Z,10.10
2023-02-12T09:49:05.122Z,10.40
2023-02-12T09:51:31.724Z,10.80
2023-02-12T09:53:58.391Z,10.80
2023-02-12T09:56:25.132Z,10.90
2023-02-12T09:58:51.776Z,11.20
2023-02-12T10:01:18.477Z,11.40
2023-02-12T10:03:45.249Z,11.20
2023-02-12T10:06:12.017Z,11.20
2023-02-12T10:08:38.758Z,11.30
2023-02-12T10:11:05.376Z,11.30
2023-02-12T10:13:31.970Z,11.00
2023-02-12T10:15:59.093Z,10.50
2023-02-12T10:18:25.986Z,10.60
2023-02-12T10:20:53.005Z,11.10
2023-02-12T10:23:19.761Z,11.50
2023-02-12T10:25:46.366Z,11.40
2023-02-12T10:28:13.078Z,11.40
2023-02-12T10:30:39.817Z,11.70
2023-02-12T10:33:06.470Z,11.80
2023-02-12T10:35:33.289Z,11.80
2023-02-12T10:38:00.063Z,11.90
2023-02-12T10:40:26.770Z,12.00
2023-02-12T10:42:53.546Z,12.20
2023-02-12T10:45:20.159Z,12.00
2023-02-12T10:47:46.782Z,11.80
2023-02-12T10:50:13.465Z,11.80
2023-02-12T10:52:40.178Z,12.30
2023-02-12T10:55:06.802Z,12.50
2023-02-12T10:57:33.445Z,12.70
2023-02-12T11:00:00.059Z,13.00
2023-02-12T11:02:26.706Z,13.00
2023-02-12T11:04:53.397Z,13.20
2023-02-12T11:07:20.034Z,13.50
2023-02-12T11:09:46.708Z,13.90
2023-02-12T11:12:13.329Z,14.20
2023-02-12T11:14:39.975Z,14.60
2023-02-12T11:17:06.659Z,14.80
2023-02-12T11:19:33.337Z,15.10
2023-02-12T11:21:59.984Z,14.90
2023-02-12T11:24:26.626Z,14.20
2023-02-12T11:26:53.314Z,14.40
2023-02-12T11:29:20.016Z,13.80
2023-02-12T11:31:46.809Z,13.60
2023-02-12T11:34:13.529Z,13.60
2023-02-12T11:36:40.223Z,13.80
2023-02-12T11:39:06.856Z,14.30
2023-02-12T11:41:33.554Z,14.30
2023-02-12T11:44:00.213Z,14.20
2023-02-12T11:46:26.902Z,14.00
2023-02-12T11:48:53.655Z,13.50
2023-02-12T11:51:20.272Z,13.20
2023-02-12T11:53:46.898Z,12.80
2023-02-12T11:56:13.663Z,13.20
2023-02-12T11:58:40.561Z,12.70
2023-02-12T12:01:07.258Z,12.80
2023-02-12T12:03:33.863Z,13.10
2023-02-12T12:06:00.532Z,12.70
2023-02-12T12:08:27.220Z,12.80
2023-02-12T12:10:53.886Z,13.30
2023-02-12T12:13:20.557Z,13.60
2023-02-12T12:15:47.226Z,13.90
2023-02-12T12:18:13.828Z,13.80
2023-02-12T12:20:40.484Z,13.60
2023-02-12T12:23:07.141Z,13.40
2023-02-12T12:25:33.804Z,13.60
2023-02-12T12:28:00.558Z,13.30
2023-02-12T12:30:27.260Z,13.80
2023-02-12T12:32:54.032Z,14.50
2023-02-12T12:35:20.764Z,14.20
2023-02-12T12:37:47.420Z,14.40
2023-02-12T12:40:14.088Z,14.80
2023-02-12T12:42:40.684Z,14.90
2023-02-12T12:45:07.341Z,14.80
2023-02-12T12:47:34.072Z,14.70
2023-02-12T12:50:00.939Z,14.50
2023-02-12T12:52:27.615Z,15.00
2023-02-12T12:54:54.258Z,15.20
2023-02-12T12:57:21.005Z,15.20
2023-02-12T12:59:47.654Z,15.50
2023-02-12T13:02:14.397Z,15.40
2023-02-12T13:04:41.081Z,15.60
2023-02-12T13:07:07.796Z,15.40
2023-02-12T13:09:34.476Z,14.80
2023-02-12T13:12:01.122Z,14.70
2023-02-12T13:14:27.784Z,14.50
2023-02-12T13:16:54.497Z,14.80
2023-02-12T13:19:21.214Z,15.00
2023-02-12T13:21:47.873Z,15.00
2023-02-12T13:24:14.516Z,15.10
2023-02-12T13:26:41.177Z,15.00
2023-02-12T13:29:07.905Z,14.80
2023-02-12T13:31:34.746Z,14.70
2023-02-12T13:34:01.469Z,14.60
2023-02-12T13:36:28.123Z,15.00
2023-02-12T13:38:54.718Z,15.00
2023-02-12T13:41:21.359Z,15.20
2023-02-12T13:43:47.992Z,15.00
2023-02-12T13:46:14.701Z,15.10
2023-02-12T13:48:41.398Z,15.00
2023-02-12T13:51:08.063Z,15.00
2023-02-12T13:53:34.754Z,14.60
2023-02-12T13:56:01.366Z,14.80
2023-02-12T13:58:28.036Z,14.70
2023-02-12T14:00:54.706Z,14.80
2023-02-12T14:03:21.328Z,14.80
2023-02-12T14:05:48.099Z,15.00
2023-02-12T14:08:14.803Z,14.90
2023-02-12T14:10:41.467Z,15.00
2023-02-12T14:13:08.177Z,15.10
2023-02-12T14:15:34.813Z,15.20
2023-02-12T14:18:01.494Z,15.20
2023-02-12T14:20:28.136Z,15.30
2023-02-12T14:22:54.782Z,15.30
2023-02-12T14:25:21.457Z,15.10
2023-02-12T14:27:48.130Z,15.00
2023-02-12T14:30:14.851Z,14.60
2023-02-12T14:32:41.474Z,14.90
2023-02-12T14:35:08.168Z,14.90
2023-02-12T14:37:37.509Z,15.00
2023-02-12T14:40:04.477Z,14.70
2023-02-12T14:42:31.213Z,14.80
2023-02-12T14:44:57.883Z,15.00
2023-02-12T14:47:24.572Z,15.10
2023-02-12T14:49:51.286Z,14.90
2023-02-12T14:52:18.043Z,15.00
2023-02-12T14:54:44.736Z,14.70
2023-02-12T14:57:11.454Z,14.90
2023-02-12T14:59:38.181Z,14.80
2023-02-12T15:02:04.805Z,14.50
2023-02-12T15:04:31.450Z,14.60
2023-02-12T15:06:58.087Z,14.60
2023-02-12T15:09:24.728Z,14.40
2023-02-12T15:11:51.479Z,14.40
2023-02-12T15:14:18.146Z,14.30
2023-02-12T15:16:44.807Z,14.30
2023-02-12T15:19:11.507Z,14.40
2023-02-12T15:21:38.162Z,14.20
2023-02-12T15:24:04.838Z,13.70
2023-02-12T15:26:31.504Z,13.80
2023-02-12T15:28:58.112Z,13.90
2023-02-12T15:31:24.861Z,13.90
2023-02-12T15:33:51.602Z,13.80
2023-02-12T15:36:18.272Z,13.40
2023-02-12T15:38:44.944Z,13.30
2023-02-12T15:41:11.643Z,13.40
2023-02-12T15:43:38.392Z,13.30
2023-02-12T15:46:05.019Z,13.40
2023-02-12T15:48:31.790Z,13.30
2023-02-12T15:50:58.449Z,13.10
2023-02-12T15:53:25.137Z,12.80
2023-02-12T15:55:51.862Z,12.60
2023-02-12T15:58:18.610Z,12.50
2023-02-12T16:00:45.297Z,12.60
2023-02-12T16:03:11.925Z,12.60
2023-02-12T16:05:38.568Z,12.00
2023-02-12T16:08:05.314Z,11.90
2023-02-12T16:10:32.080Z,11.70
2023-02-12T16:12:58.729Z,11.70
2023-02-12T16:15:25.402Z,11.50
2023-02-12T16:17:51.996Z,11.60
2023-02-12T16:20:18.669Z,11.10
2023-02-12T16:22:45.311Z,11.10
2023-02-12T16:25:11.977Z,10.90
2023-02-12T16:27:38.588Z,10.60
2023-02-12T16:30:05.252Z,10.40
2023-02-12T16:32:31.966Z,10.10
2023-02-12T16:34:58.660Z,9.70
2023-02-12T16:37:25.396Z,10.10
2023-02-12T16:39:52.059Z,10.30
2023-02-12T16:42:19.766Z,9.90
2023-02-12T16:44:46.521Z,10.00
2023-02-12T16:47:13.199Z,9.80
2023-02-12T16:49:41.688Z,9.20
2023-02-12T16:52:08.348Z,8.60
2023-02-12T16:54:36.930Z,8.70
2023-02-12T16:57:03.644Z,9.10
2023-02-12T16:59:30.276Z,9.20
2023-02-12T17:01:56.922Z,9.30
2023-02-12T17:04:23.624Z,8.20
2023-02-12T17:06:50.326Z,8.40
2023-02-12T17:09:17.007Z,8.70
2023-02-12T17:11:43.692Z,8.60
2023-02-12T17:14:10.391Z,8.60
2023-02-12T17:16:37.026Z,8.60
2023-02-12T17:19:03.772Z,8.30
2023-02-12T17:21:30.532Z,8.00
2023-02-12T17:23:57.213Z,8.20
2023-02-12T17:26:23.853Z,8.30
2023-02-12T17:28:50.576Z,8.10
2023-02-12T17:31:17.386Z,8.20
2023-02-12T17:33:44.177Z,8.20
2023-02-12T17:36:10.790Z,7.90
2023-02-12T17:38:37.426Z,7.60
2023-02-12T17:41:04.268Z,7.70
2023-02-12T17:43:30.950Z,7.70
2023-02-12T17:45:57.665Z,7.60
2023-02-12T17:48:24.347Z,7.70
2023-02-12T17:50:50.966Z,7.70
2023-02-12T17:53:17.610Z,7.80
2023-02-12T17:55:44.235Z,7.80
2023-02-12T17:58:10.916Z,7.80
2023-02-12T18:00:37.522Z,7.70
2023-02-12T18:03:04.197Z,7.60
2023-02-12T18:05:30.892Z,7.30
2023-02-12T18:07:57.587Z,7.40
2023-02-12T18:10:24.241Z,7.30
2023-02-12T18:12:50.899Z,7.10
2023-02-12T18:15:17.505Z,7.00
2023-02-12T18:17:44.202Z,7.00
2023-02-12T18:20:10.886Z,7.00
2023-02-12T18:22:37.581Z,7.10
2023-02-12T18:25:04.266Z,6.90
2023-02-12T18:27:30.913Z,6.80
2023-02-12T18:29:57.573Z,6.80
2023-02-12T18:32:24.243Z,6.70
2023-02-12T18:34:50.907Z,6.50
2023-02-12T18:37:17.547Z,6.40
2023-02-12T18:39:44.188Z,5.80
2023-02-12T18:42:10.899Z,6.00
2023-02-12T18:44:37.501Z,6.20
2023-02-12T18:47:04.193Z,6.30
2023-02-12T18:49:30.856Z,6.30
2023-02-12T18:51:57.469Z,5.60
2023-02-12T18:54:24.108Z,5.70
2023-02-12T18:56:50.782Z,5.80
2023-02-12T18:59:17.454Z,6.10
2023-02-12T19:01:44.239Z,6.20
2023-02-12T19:04:10.912Z,6.20
2023-02-12T19:06:37.652Z,6.20
2023-02-12T19:09:04.340Z,5.70
2023-02-12T19:11:31.014Z,5.60
2023-02-12T19:13:58.228Z,5.30
2023-02-12T19:16:25.280Z,5.60
2023-02-12T19:18:51.951Z,5.70
2023-02-12T19:21:18.579Z,5.60
2023-02-12T19:23:45.255Z,5.70
2023-02-12T19:26:11.904Z,5.60
2023-02-12T19:28:41.351Z,5.60
2023-02-12T19:31:08.110Z,5.60
2023-02-12T19:33:34.795Z,5.40
2023-02-12T19:36:01.454Z,5.30
2023-02-12T19:38:28.100Z,5.50
2023-02-12T19:40:55.027Z,5.50
2023-02-12T19:43:21.854Z,5.50
2023-02-12T19:45:48.500Z,4.50
2023-02-12T19:48:15.122Z,4.40
2023-02-12T19:50:41.717Z,4.80
2023-02-12T19:53:08.413Z,5.00
2023-02-12T19:55:35.099Z,4.90
2023-02-12T19:58:01.775Z,5.00
2023-02-12T20:00:28.449Z,4.50
2023-02-12T20:02:55.156Z,4.60
2023-02-12T20:05:21.849Z,4.90
2023-02-12T20:07:48.656Z,5.00
2023-02-12T20:10:17.978Z,5.10
2023-02-12T20:12:44.892Z,5.10
2023-02-12T20:15:11.504Z,5.00
2023-02-12T20:17:38.103Z,4.40
2023-02-12T20:20:04.724Z,4.60
2023-02-12T20:22:31.348Z,4.60
2023-02-12T20:24:58.017Z,4.70
2023-02-12T20:27:24.669Z,4.50
2023-02-12T20:29:51.350Z,4.00
2023-02-12T20:32:17.996Z,4.00
2023-02-12T20:34:50.759Z,3.90
2023-02-12T20:37:19.704Z,3.90
2023-02-12T20:39:46.403Z,4.10
2023-02-12T20:42:13.006Z,4.30
2023-02-12T20:44:40.910Z,4.30
2023-02-12T20:47:07.566Z,4.40
2023-02-12T20:49:34.271Z,4.20
2023-02-12T20:52:00.921Z,3.50
2023-02-12T20:54:27.572Z,3.60
2023-02-12T20:56:54.214Z,4.00
2023-02-12T20:59:20.890Z,4.20
2023-02-12T21:01:47.602Z,4.00
2023-02-12T21:04:14.342Z,3.50
2023-02-12T21:06:40.961Z,3.60
2023-02-12T21:09:07.672Z,3.90
2023-02-12T21:11:34.301Z,3.90
2023-02-12T21:14:20.886Z,3.90
2023-02-12T21:16:48.085Z,3.80
2023-02-12T21:19:14.762Z,3.90
2023-02-12T21:21:41.431Z,3.80
2023-02-12T21:24:08.170Z,3.90
2023-02-12T21:26:34.839Z,4.10
2023-02-12T21:29:01.497Z,3.70
2023-02-12T21:31:28.256Z,3.60
2023-02-12T21:33:55.050Z,3.50
2023-02-12T21:36:21.661Z,3.60
2023-02-12T21:38:48.317Z,3.80
2023-02-12T21:41:14.948Z,3.70
2023-02-12T21:43:43.950Z,3.60
2023-02-12T21:46:10.768Z,3.80
2023-02-12T21:48:37.458Z,3.60
2023-02-12T21:51:04.123Z,3.60
2023-02-12T21:53:30.756Z,3.80
2023-02-12T21:55:57.833Z,3.70
2023-02-12T21:58:24.627Z,3.80
2023-02-12T22:00:51.326Z,3.80
2023-02-12T22:03:18.005Z,3.60
2023-02-12T22:05:44.688Z,3.70
2023-02-12T22:08:11.362Z,3.70
2023-02-12T22:10:38.588Z,3.70
2023-02-12T22:13:05.272Z,3.70
2023-02-12T22:15:31.945Z,3.50
2023-02-12T22:17:58.650Z,3.60
2023-02-12T22:20:25.349Z,3.50
2023-02-12T22:22:51.982Z,3.10
2023-02-12T22:25:18.671Z,3.30
2023-02-12T22:27:45.396Z,3.40
2023-02-12T22:30:12.025Z,3.30
2023-02-12T22:32:38.718Z,3.40
2023-02-12T22:35:05.477Z,3.50
2023-02-12T22:37:32.122Z,3.50
2023-02-12T22:39:58.814Z,3.50
2023-02-12T22:42:25.455Z,3.50
2023-02-12T22:44:52.095Z,3.50
2023-02-12T22:47:18.709Z,3.50
2023-02-12T22:49:45.341Z,3.40
2023-02-12T22:52:11.945Z,2.90
2023-02-12T22:54:38.604Z,3.00
2023-02-12T22:57:05.278Z,2.80
2023-02-12T22:59:31.965Z,2.90
2023-02-12T23:01:58.709Z,3.00
2023-02-12T23:04:25.426Z,3.00
2023-02-12T23:06:52.131Z,2.40
2023-02-12T23:09:18.808Z,2.60
2023-02-12T23:11:45.445Z,2.20
2023-02-12T23:14:12.116Z,1.90
2023-02-12T23:16:38.888Z,2.40
2023-02-12T23:19:05.660Z,2.80
2023-02-12T23:21:32.311Z,2.60
2023-02-12T23:23:59.093Z,2.80
2023-02-12T23:26:25.832Z,2.90
2023-02-12T23:28:52.503Z,3.00
2023-02-12T23:31:19.300Z,3.10
2023-02-12T23:33:46.062Z,3.20
2023-02-12T23:36:12.753Z,3.20
2023-02-12T23:38:39.448Z,3.10
2023-02-12T23:41:06.133Z,3.10
2023-02-12T23:43:32.831Z,3.00
2023-02-12T23:45:59.507Z,3.00
2023-02-12T23:48:26.113Z,2.60
2023-02-12T23:50:52.743Z,2.70
2023-02-12T23:53:19.427Z,2.60
2023-02-12T23:55:46.091Z,2.70
2023-02-12T23:58:12.698Z,2.70
